Flight Track Log - Related Links

Times and Time Zones

All times are in EDT time to prevent confusion due to time zone crossing. See the PDT4310 flight status page for this flight to view local times or setup timezone preferences in your user account.

Time Position Orientation Groundspeed Altitude Reporting Facility
EDT Latitude Longitude Course Direction KTS MPH feet Rate Location/Type
Mon 08:01:00 AM 40.1295 -76.4520 99° East  Level Estimated
Mon 08:02:00 AM 40.1235 -76.3720 96° East  Level FlightAware Approximate
Mon 08:03:00 AM 40.1067 -76.2947 98° East  Level Estimated
Mon 08:04:00 AM 40.1034 -76.2145 93° East  Level FlightAware Approximate
Mon 08:05:00 AM 40.0855 -76.1377 96° East  Level Estimated
Mon 08:06:00 AM 40.0847 -76.0574 91° East  Level FlightAware Approximate
Mon 08:07:00 AM 40.0838 -75.9771 91° East  Level FlightAware Approximate
Mon 08:08:00 AM 40.0625 -75.9018 96° East  Level Estimated
Mon 08:09:00 AM 40.0645 -75.8215 88° East  Level FlightAware Approximate
Mon 08:10:00 AM 40.0403 -75.7477 118° Southeast  Level Estimated
Mon 08:10:52 AM 40.1000 -75.8833 118° Southeast 235 270 5,000  Level Philadelphia TRACON
Mon 08:11:00 AM 40.0177 -75.6731 111° Southeast  Level FlightAware Approximate
Mon 08:12:00 AM 39.9952 -75.5985 112° Southeast  Level FlightAware Approximate
Mon 08:12:22 AM 40.1000 -75.7667 90° East 236 272 5,000  Level Philadelphia TRACON
Mon 08:13:00 AM 39.9725 -75.5239 112° Southeast  Level FlightAware Approximate
Mon 08:13:22 AM 40.1000 -75.6833 90° East 236 272 5,000  Level Philadelphia TRACON
Mon 08:14:00 AM 39.9468 -75.4511 90° East  Level Estimated
Mon 08:14:11 AM 40.0833 -75.6167 108° East 241 277 4,500  Level Philadelphia TRACON
Mon 08:15:00 AM 39.9217 -75.3818 113° Southeast  Level FlightAware Approximate
Mon 08:15:10 AM 40.0833 -75.5167 90° East 255 293 4,000  Level Philadelphia TRACON
Mon 08:16:00 AM 39.8974 -75.3103 118° Southeast  Level FlightAware Approximate
Mon 08:16:10 AM 40.0833 -75.4333 90° East 239 275 4,000  Level Philadelphia TRACON
Mon 08:17:10 AM 40.0833 -75.3500 90° East 235 270 3,900 -522 Descending Philadelphia TRACON
Mon 08:18:05 AM 40.0333 -75.3167 153° Southeast 248 285 3,000 -1,140 Descending Philadelphia TRACON
Mon 08:19:11 AM 39.9667 -75.2833 159° South 191 220 1,600 -1,056 Descending Philadelphia TRACON
Mon 08:20:10 AM 39.9333 -75.2500 143° Southeast 145 167 800 -650 Descending Philadelphia TRACON
Mon 08:21:11 AM 39.9000 -75.2333 159° South 106 122 300 -492 Descending Philadelphia TRACON
Mon 08:23:00 AM 39.8667 -75.2333 118° Southeast  Level FlightAware Approximate

Login

Don't have an account? Register now (free) for customized features, flight alerts, and more!